Terminal Aerodrome Forecast
Issued by NWS

Current Version | Previous Version | Graphics & Text | Print | Product List | Glossary On
Versions: 1 2 3 4 5 6 7 8 9 10 11 12 13 14
267
FTUS41 KILN 041731
TAFLUK
TAF
KLUK 041731Z 0418/0518 29008KT P6SM BKN035
     FM042200 29005KT P6SM SCT040
     FM050100 30004KT P6SM SKC
     FM051400 22006KT P6SM BKN250=

USA.gov is the U.S. government's official web portal to all federal, state and local government web resources and services.